sensor_id;sensor_type;location;lat;lon;timestamp;temperature;humidity
67157;SHT31;54086;50.126;8.710;2022-11-20T00:00:27;2.33;88.21
67157;SHT31;54086;50.126;8.710;2022-11-20T00:02:53;2.40;88.55
67157;SHT31;54086;50.126;8.710;2022-11-20T00:05:18;2.38;88.61
67157;SHT31;54086;50.126;8.710;2022-11-20T00:07:44;2.29;88.59
67157;SHT31;54086;50.126;8.710;2022-11-20T00:10:09;2.38;88.50
67157;SHT31;54086;50.126;8.710;2022-11-20T00:12:35;2.34;88.72
67157;SHT31;54086;50.126;8.710;2022-11-20T00:15:00;2.36;88.81
67157;SHT31;54086;50.126;8.710;2022-11-20T00:17:26;2.38;88.73
67157;SHT31;54086;50.126;8.710;2022-11-20T00:19:51;2.33;88.87
67157;SHT31;54086;50.126;8.710;2022-11-20T00:22:16;2.38;89.03
67157;SHT31;54086;50.126;8.710;2022-11-20T00:24:42;2.48;89.01
67157;SHT31;54086;50.126;8.710;2022-11-20T00:27:07;2.40;89.02
67157;SHT31;54086;50.126;8.710;2022-11-20T00:29:32;2.51;88.70
67157;SHT31;54086;50.126;8.710;2022-11-20T00:31:58;2.60;88.15
67157;SHT31;54086;50.126;8.710;2022-11-20T00:34:23;2.60;87.76
67157;SHT31;54086;50.126;8.710;2022-11-20T00:36:48;2.55;87.45
67157;SHT31;54086;50.126;8.710;2022-11-20T00:39:14;2.57;87.51
67157;SHT31;54086;50.126;8.710;2022-11-20T00:41:39;2.38;87.65
67157;SHT31;54086;50.126;8.710;2022-11-20T00:44:04;2.54;87.56
67157;SHT31;54086;50.126;8.710;2022-11-20T00:46:30;2.58;87.53
67157;SHT31;54086;50.126;8.710;2022-11-20T00:48:55;2.54;87.63
67157;SHT31;54086;50.126;8.710;2022-11-20T00:51:22;2.54;87.38
67157;SHT31;54086;50.126;8.710;2022-11-20T00:53:48;2.45;87.50
67157;SHT31;54086;50.126;8.710;2022-11-20T00:56:16;2.42;87.84
67157;SHT31;54086;50.126;8.710;2022-11-20T00:58:43;2.40;87.60
67157;SHT31;54086;50.126;8.710;2022-11-20T01:01:20;2.30;87.79
67157;SHT31;54086;50.126;8.710;2022-11-20T01:03:50;2.34;88.04
67157;SHT31;54086;50.126;8.710;2022-11-20T01:06:26;2.42;87.85
67157;SHT31;54086;50.126;8.710;2022-11-20T01:08:54;2.34;88.81
67157;SHT31;54086;50.126;8.710;2022-11-20T01:11:23;2.31;89.48
67157;SHT31;54086;50.126;8.710;2022-11-20T01:13:50;2.29;89.12
67157;SHT31;54086;50.126;8.710;2022-11-20T01:16:19;2.27;88.79
67157;SHT31;54086;50.126;8.710;2022-11-20T01:18:47;2.20;89.02
67157;SHT31;54086;50.126;8.710;2022-11-20T01:21:33;2.03;89.82
67157;SHT31;54086;50.126;8.710;2022-11-20T01:23:59;2.11;90.50
67157;SHT31;54086;50.126;8.710;2022-11-20T01:26:28;2.19;90.72
67157;SHT31;54086;50.126;8.710;2022-11-20T01:28:55;2.26;90.57
67157;SHT31;54086;50.126;8.710;2022-11-20T01:31:23;2.05;90.75
67157;SHT31;54086;50.126;8.710;2022-11-20T01:33:51;2.14;91.03
67157;SHT31;54086;50.126;8.710;2022-11-20T01:36:17;2.14;91.18
67157;SHT31;54086;50.126;8.710;2022-11-20T01:38:44;2.14;91.56
67157;SHT31;54086;50.126;8.710;2022-11-20T01:41:10;1.92;91.42
67157;SHT31;54086;50.126;8.710;2022-11-20T01:43:56;1.89;91.45
67157;SHT31;54086;50.126;8.710;2022-11-20T01:46:21;1.86;91.51
67157;SHT31;54086;50.126;8.710;2022-11-20T01:51:43;2.05;91.69
67157;SHT31;54086;50.126;8.710;2022-11-20T01:54:15;2.05;91.37
67157;SHT31;54086;50.126;8.710;2022-11-20T01:56:43;1.83;91.32
67157;SHT31;54086;50.126;8.710;2022-11-20T01:59:10;1.85;92.07
67157;SHT31;54086;50.126;8.710;2022-11-20T02:01:37;1.86;91.99
67157;SHT31;54086;50.126;8.710;2022-11-20T02:04:05;1.99;92.60
67157;SHT31;54086;50.126;8.710;2022-11-20T02:06:36;2.06;92.18
67157;SHT31;54086;50.126;8.710;2022-11-20T02:09:04;2.13;92.47
67157;SHT31;54086;50.126;8.710;2022-11-20T02:11:30;2.02;92.47
67157;SHT31;54086;50.126;8.710;2022-11-20T02:13:56;2.02;92.39
67157;SHT31;54086;50.126;8.710;2022-11-20T02:16:27;1.95;91.98
67157;SHT31;54086;50.126;8.710;2022-11-20T02:18:54;1.90;92.38
67157;SHT31;54086;50.126;8.710;2022-11-20T02:22:02;2.11;92.54
67157;SHT31;54086;50.126;8.710;2022-11-20T02:24:25;2.23;91.93
67157;SHT31;54086;50.126;8.710;2022-11-20T02:26:53;2.23;91.97
67157;SHT31;54086;50.126;8.710;2022-11-20T02:29:35;2.10;91.20
67157;SHT31;54086;50.126;8.710;2022-11-20T02:32:02;2.11;91.44
67157;SHT31;54086;50.126;8.710;2022-11-20T02:34:36;2.06;91.49
67157;SHT31;54086;50.126;8.710;2022-11-20T02:37:02;2.05;91.64
67157;SHT31;54086;50.126;8.710;2022-11-20T02:39:28;2.16;92.42
67157;SHT31;54086;50.126;8.710;2022-11-20T02:41:54;2.06;91.88
67157;SHT31;54086;50.126;8.710;2022-11-20T02:44:20;2.07;92.07
67157;SHT31;54086;50.126;8.710;2022-11-20T02:46:46;2.05;91.81
67157;SHT31;54086;50.126;8.710;2022-11-20T02:49:11;1.98;91.49
67157;SHT31;54086;50.126;8.710;2022-11-20T02:51:36;2.09;92.53
67157;SHT31;54086;50.126;8.710;2022-11-20T02:54:02;2.10;91.31
67157;SHT31;54086;50.126;8.710;2022-11-20T02:56:28;2.17;91.42
67157;SHT31;54086;50.126;8.710;2022-11-20T02:58:53;2.20;90.97
67157;SHT31;54086;50.126;8.710;2022-11-20T03:01:18;2.17;91.05
67157;SHT31;54086;50.126;8.710;2022-11-20T03:03:44;2.02;90.77
67157;SHT31;54086;50.126;8.710;2022-11-20T03:06:09;1.96;91.02
67157;SHT31;54086;50.126;8.710;2022-11-20T03:08:35;1.93;90.90
67157;SHT31;54086;50.126;8.710;2022-11-20T03:11:05;1.89;90.39
67157;SHT31;54086;50.126;8.710;2022-11-20T03:13:31;1.95;90.48
67157;SHT31;54086;50.126;8.710;2022-11-20T03:15:56;1.92;90.71
67157;SHT31;54086;50.126;8.710;2022-11-20T03:18:21;1.72;91.36
67157;SHT31;54086;50.126;8.710;2022-11-20T03:20:47;1.71;91.39
67157;SHT31;54086;50.126;8.710;2022-11-20T03:23:12;1.71;91.45
67157;SHT31;54086;50.126;8.710;2022-11-20T03:25:38;1.71;91.28
67157;SHT31;54086;50.126;8.710;2022-11-20T03:28:03;1.72;91.92
67157;SHT31;54086;50.126;8.710;2022-11-20T03:30:29;1.79;91.51
67157;SHT31;54086;50.126;8.710;2022-11-20T03:32:54;1.78;91.75
67157;SHT31;54086;50.126;8.710;2022-11-20T03:35:20;1.69;91.66
67157;SHT31;54086;50.126;8.710;2022-11-20T03:37:45;1.80;91.76
67157;SHT31;54086;50.126;8.710;2022-11-20T03:40:11;1.79;91.41
67157;SHT31;54086;50.126;8.710;2022-11-20T03:42:36;1.82;91.61
67157;SHT31;54086;50.126;8.710;2022-11-20T03:45:12;1.80;91.25
67157;SHT31;54086;50.126;8.710;2022-11-20T03:47:38;1.76;90.89
67157;SHT31;54086;50.126;8.710;2022-11-20T03:50:04;1.76;91.16
67157;SHT31;54086;50.126;8.710;2022-11-20T03:52:29;1.85;91.69
67157;SHT31;54086;50.126;8.710;2022-11-20T03:54:55;1.80;91.23
67157;SHT31;54086;50.126;8.710;2022-11-20T03:57:20;1.85;90.99
67157;SHT31;54086;50.126;8.710;2022-11-20T03:59:45;1.79;90.89
67157;SHT31;54086;50.126;8.710;2022-11-20T04:02:11;1.76;91.15
67157;SHT31;54086;50.126;8.710;2022-11-20T04:04:36;1.80;91.34
67157;SHT31;54086;50.126;8.710;2022-11-20T04:07:02;1.65;91.11
67157;SHT31;54086;50.126;8.710;2022-11-20T04:09:27;1.63;91.45
67157;SHT31;54086;50.126;8.710;2022-11-20T04:11:53;1.56;91.94
67157;SHT31;54086;50.126;8.710;2022-11-20T04:14:19;1.55;91.49
67157;SHT31;54086;50.126;8.710;2022-11-20T04:16:45;1.51;91.38
67157;SHT31;54086;50.126;8.710;2022-11-20T04:19:13;1.52;91.38
67157;SHT31;54086;50.126;8.710;2022-11-20T04:21:40;1.45;91.46
67157;SHT31;54086;50.126;8.710;2022-11-20T04:24:05;1.52;91.37
67157;SHT31;54086;50.126;8.710;2022-11-20T04:26:31;1.59;91.36
67157;SHT31;54086;50.126;8.710;2022-11-20T04:28:57;1.56;91.23
67157;SHT31;54086;50.126;8.710;2022-11-20T04:31:25;1.48;91.61
67157;SHT31;54086;50.126;8.710;2022-11-20T04:33:51;1.56;91.41
67157;SHT31;54086;50.126;8.710;2022-11-20T04:36:22;1.68;91.37
67157;SHT31;54086;50.126;8.710;2022-11-20T04:38:52;1.85;91.71
67157;SHT31;54086;50.126;8.710;2022-11-20T04:41:19;1.58;91.43
67157;SHT31;54086;50.126;8.710;2022-11-20T04:43:49;1.63;91.20
67157;SHT31;54086;50.126;8.710;2022-11-20T04:46:15;1.66;90.94
67157;SHT31;54086;50.126;8.710;2022-11-20T04:48:41;1.65;91.75
67157;SHT31;54086;50.126;8.710;2022-11-20T04:51:06;1.68;91.11
67157;SHT31;54086;50.126;8.710;2022-11-20T04:53:32;1.63;91.24
67157;SHT31;54086;50.126;8.710;2022-11-20T04:56:03;1.65;91.17
67157;SHT31;54086;50.126;8.710;2022-11-20T04:58:29;1.59;91.36
67157;SHT31;54086;50.126;8.710;2022-11-20T05:01:12;1.62;91.65
67157;SHT31;54086;50.126;8.710;2022-11-20T05:03:39;1.59;91.59
67157;SHT31;54086;50.126;8.710;2022-11-20T05:06:06;1.54;91.80
67157;SHT31;54086;50.126;8.710;2022-11-20T05:08:31;1.62;91.80
67157;SHT31;54086;50.126;8.710;2022-11-20T05:11:08;1.59;91.22
67157;SHT31;54086;50.126;8.710;2022-11-20T05:13:33;1.78;91.85
67157;SHT31;54086;50.126;8.710;2022-11-20T05:16:04;1.86;91.38
67157;SHT31;54086;50.126;8.710;2022-11-20T05:18:29;1.79;92.01
67157;SHT31;54086;50.126;8.710;2022-11-20T05:20:59;1.86;91.31
67157;SHT31;54086;50.126;8.710;2022-11-20T05:23:25;1.82;91.37
67157;SHT31;54086;50.126;8.710;2022-11-20T05:25:54;1.73;91.68
67157;SHT31;54086;50.126;8.710;2022-11-20T05:28:20;1.75;91.77
67157;SHT31;54086;50.126;8.710;2022-11-20T05:30:45;1.92;91.03
67157;SHT31;54086;50.126;8.710;2022-11-20T05:33:10;1.87;91.03
67157;SHT31;54086;50.126;8.710;2022-11-20T05:35:36;1.98;91.93
67157;SHT31;54086;50.126;8.710;2022-11-20T05:38:01;1.98;92.43
67157;SHT31;54086;50.126;8.710;2022-11-20T05:40:26;2.03;91.58
67157;SHT31;54086;50.126;8.710;2022-11-20T05:42:52;2.05;91.18
67157;SHT31;54086;50.126;8.710;2022-11-20T05:45:17;2.03;91.34
67157;SHT31;54086;50.126;8.710;2022-11-20T05:47:42;2.09;91.97
67157;SHT31;54086;50.126;8.710;2022-11-20T05:50:08;2.17;91.77
67157;SHT31;54086;50.126;8.710;2022-11-20T05:52:33;2.26;92.21
67157;SHT31;54086;50.126;8.710;2022-11-20T05:54:59;2.29;91.50
67157;SHT31;54086;50.126;8.710;2022-11-20T05:57:36;2.29;91.31
67157;SHT31;54086;50.126;8.710;2022-11-20T06:00:03;2.26;91.40
67157;SHT31;54086;50.126;8.710;2022-11-20T06:02:28;2.20;91.38
67157;SHT31;54086;50.126;8.710;2022-11-20T06:04:54;2.09;92.06
67157;SHT31;54086;50.126;8.710;2022-11-20T06:07:19;2.21;91.84
67157;SHT31;54086;50.126;8.710;2022-11-20T06:09:44;2.34;91.69
67157;SHT31;54086;50.126;8.710;2022-11-20T06:12:10;2.36;91.41
67157;SHT31;54086;50.126;8.710;2022-11-20T06:14:35;2.24;91.37
67157;SHT31;54086;50.126;8.710;2022-11-20T06:17:00;2.02;91.76
67157;SHT31;54086;50.126;8.710;2022-11-20T06:19:26;2.17;91.97
67157;SHT31;54086;50.126;8.710;2022-11-20T06:21:51;2.14;91.61
67157;SHT31;54086;50.126;8.710;2022-11-20T06:24:17;2.10;91.83
67157;SHT31;54086;50.126;8.710;2022-11-20T06:26:42;2.16;92.39
67157;SHT31;54086;50.126;8.710;2022-11-20T06:29:08;2.24;91.85
67157;SHT31;54086;50.126;8.710;2022-11-20T06:31:33;2.02;91.64
67157;SHT31;54086;50.126;8.710;2022-11-20T06:34:05;2.09;91.97
67157;SHT31;54086;50.126;8.710;2022-11-20T06:36:31;2.03;92.19
67157;SHT31;54086;50.126;8.710;2022-11-20T06:38:56;1.98;92.34
67157;SHT31;54086;50.126;8.710;2022-11-20T06:41:22;1.92;92.10
67157;SHT31;54086;50.126;8.710;2022-11-20T06:43:48;1.86;92.22
67157;SHT31;54086;50.126;8.710;2022-11-20T06:46:14;1.92;92.26
67157;SHT31;54086;50.126;8.710;2022-11-20T06:48:42;1.69;92.38
67157;SHT31;54086;50.126;8.710;2022-11-20T06:51:08;1.82;92.22
67157;SHT31;54086;50.126;8.710;2022-11-20T06:53:34;1.87;92.37
67157;SHT31;54086;50.126;8.710;2022-11-20T06:55:59;1.89;92.27
67157;SHT31;54086;50.126;8.710;2022-11-20T06:58:29;1.82;92.03
67157;SHT31;54086;50.126;8.710;2022-11-20T07:01:06;1.61;92.95
67157;SHT31;54086;50.126;8.710;2022-11-20T07:03:32;1.61;93.09
67157;SHT31;54086;50.126;8.710;2022-11-20T07:05:58;1.72;92.77
67157;SHT31;54086;50.126;8.710;2022-11-20T07:08:25;1.61;92.90
67157;SHT31;54086;50.126;8.710;2022-11-20T07:10:50;1.66;92.93
67157;SHT31;54086;50.126;8.710;2022-11-20T07:13:16;1.66;93.10
67157;SHT31;54086;50.126;8.710;2022-11-20T07:15:41;1.65;93.18
67157;SHT31;54086;50.126;8.710;2022-11-20T07:18:06;1.58;93.40
67157;SHT31;54086;50.126;8.710;2022-11-20T07:20:32;1.62;93.70
67157;SHT31;54086;50.126;8.710;2022-11-20T07:22:58;1.55;93.76
67157;SHT31;54086;50.126;8.710;2022-11-20T07:25:24;1.61;93.87
67157;SHT31;54086;50.126;8.710;2022-11-20T07:27:50;1.68;93.69
67157;SHT31;54086;50.126;8.710;2022-11-20T07:30:16;1.78;93.42
67157;SHT31;54086;50.126;8.710;2022-11-20T07:32:41;1.86;93.58
67157;SHT31;54086;50.126;8.710;2022-11-20T07:35:07;1.82;93.63
67157;SHT31;54086;50.126;8.710;2022-11-20T07:37:35;1.75;93.58
67157;SHT31;54086;50.126;8.710;2022-11-20T07:40:01;1.90;93.94
67157;SHT31;54086;50.126;8.710;2022-11-20T07:42:26;1.96;93.71
67157;SHT31;54086;50.126;8.710;2022-11-20T07:44:52;2.10;93.64
67157;SHT31;54086;50.126;8.710;2022-11-20T07:47:17;2.19;93.51
67157;SHT31;54086;50.126;8.710;2022-11-20T07:49:42;2.13;93.47
67157;SHT31;54086;50.126;8.710;2022-11-20T07:52:08;2.26;93.58
67157;SHT31;54086;50.126;8.710;2022-11-20T07:54:33;2.24;93.73
67157;SHT31;54086;50.126;8.710;2022-11-20T07:56:58;2.16;93.79
67157;SHT31;54086;50.126;8.710;2022-11-20T07:59:23;2.19;93.72
67157;SHT31;54086;50.126;8.710;2022-11-20T08:01:49;2.20;93.43
67157;SHT31;54086;50.126;8.710;2022-11-20T08:04:15;2.27;93.51
67157;SHT31;54086;50.126;8.710;2022-11-20T08:06:41;2.17;93.53
67157;SHT31;54086;50.126;8.710;2022-11-20T08:09:06;2.30;93.68
67157;SHT31;54086;50.126;8.710;2022-11-20T08:11:32;2.31;93.70
67157;SHT31;54086;50.126;8.710;2022-11-20T08:14:16;2.36;93.54
67157;SHT31;54086;50.126;8.710;2022-11-20T08:16:46;2.47;93.27
67157;SHT31;54086;50.126;8.710;2022-11-20T08:19:13;2.48;93.25
67157;SHT31;54086;50.126;8.710;2022-11-20T08:21:39;2.48;93.07
67157;SHT31;54086;50.126;8.710;2022-11-20T08:24:06;2.54;92.94
67157;SHT31;54086;50.126;8.710;2022-11-20T08:26:31;2.62;92.75
67157;SHT31;54086;50.126;8.710;2022-11-20T08:28:57;2.58;93.38
67157;SHT31;54086;50.126;8.710;2022-11-20T08:31:24;2.74;93.33
67157;SHT31;54086;50.126;8.710;2022-11-20T08:33:50;2.81;93.26
67157;SHT31;54086;50.126;8.710;2022-11-20T08:36:16;2.81;93.68
67157;SHT31;54086;50.126;8.710;2022-11-20T08:38:41;2.92;93.17
67157;SHT31;54086;50.126;8.710;2022-11-20T08:41:07;3.02;92.87
67157;SHT31;54086;50.126;8.710;2022-11-20T08:43:54;2.93;92.47
67157;SHT31;54086;50.126;8.710;2022-11-20T08:46:20;2.96;92.27
67157;SHT31;54086;50.126;8.710;2022-11-20T08:48:46;2.92;92.03
67157;SHT31;54086;50.126;8.710;2022-11-20T08:51:12;2.96;92.56
67157;SHT31;54086;50.126;8.710;2022-11-20T08:53:38;2.88;92.36
67157;SHT31;54086;50.126;8.710;2022-11-20T08:56:04;2.95;92.59
67157;SHT31;54086;50.126;8.710;2022-11-20T08:58:30;2.93;92.68
67157;SHT31;54086;50.126;8.710;2022-11-20T09:00:55;2.82;92.06
67157;SHT31;54086;50.126;8.710;2022-11-20T09:03:21;2.96;92.07
67157;SHT31;54086;50.126;8.710;2022-11-20T09:05:46;2.98;92.44
67157;SHT31;54086;50.126;8.710;2022-11-20T09:08:12;3.08;92.30
67157;SHT31;54086;50.126;8.710;2022-11-20T09:10:37;3.31;92.82
67157;SHT31;54086;50.126;8.710;2022-11-20T09:13:06;3.36;92.17
67157;SHT31;54086;50.126;8.710;2022-11-20T09:15:32;3.36;91.67
67157;SHT31;54086;50.126;8.710;2022-11-20T09:18:00;3.40;91.99
67157;SHT31;54086;50.126;8.710;2022-11-20T09:20:28;3.24;92.37
67157;SHT31;54086;50.126;8.710;2022-11-20T09:22:54;3.34;92.64
67157;SHT31;54086;50.126;8.710;2022-11-20T09:25:20;3.39;92.43
67157;SHT31;54086;50.126;8.710;2022-11-20T09:27:46;3.24;92.42
67157;SHT31;54086;50.126;8.710;2022-11-20T09:30:13;3.26;92.36
67157;SHT31;54086;50.126;8.710;2022-11-20T09:32:39;3.49;92.18
67157;SHT31;54086;50.126;8.710;2022-11-20T09:35:04;3.67;92.18
67157;SHT31;54086;50.126;8.710;2022-11-20T09:37:29;3.81;91.54
67157;SHT31;54086;50.126;8.710;2022-11-20T09:39:55;3.85;91.63
67157;SHT31;54086;50.126;8.710;2022-11-20T09:48:24;3.91;91.11
67157;SHT31;54086;50.126;8.710;2022-11-20T09:54:13;4.08;90.69
67157;SHT31;54086;50.126;8.710;2022-11-20T09:56:43;4.23;90.48
67157;SHT31;54086;50.126;8.710;2022-11-20T09:59:27;4.35;90.57
67157;SHT31;54086;50.126;8.710;2022-11-20T10:01:55;4.67;90.11
67157;SHT31;54086;50.126;8.710;2022-11-20T10:04:21;4.70;89.82
67157;SHT31;54086;50.126;8.710;2022-11-20T10:07:12;4.66;89.25
67157;SHT31;54086;50.126;8.710;2022-11-20T10:09:55;4.70;89.45
67157;SHT31;54086;50.126;8.710;2022-11-20T10:21:30;4.43;90.64
67157;SHT31;54086;50.126;8.710;2022-11-20T10:26:39;4.26;91.31
67157;SHT31;54086;50.126;8.710;2022-11-20T10:29:19;4.35;91.58
67157;SHT31;54086;50.126;8.710;2022-11-20T10:31:54;4.42;91.20
67157;SHT31;54086;50.126;8.710;2022-11-20T10:34:38;4.36;91.03
67157;SHT31;54086;50.126;8.710;2022-11-20T10:37:18;4.23;91.70
67157;SHT31;54086;50.126;8.710;2022-11-20T10:42:31;4.23;91.41
67157;SHT31;54086;50.126;8.710;2022-11-20T10:45:02;4.32;91.43
67157;SHT31;54086;50.126;8.710;2022-11-20T10:47:34;4.52;91.59
67157;SHT31;54086;50.126;8.710;2022-11-20T10:50:09;4.63;90.87
67157;SHT31;54086;50.126;8.710;2022-11-20T11:00:20;4.92;90.36
67157;SHT31;54086;50.126;8.710;2022-11-20T11:02:50;4.63;89.98
67157;SHT31;54086;50.126;8.710;2022-11-20T11:08:12;4.49;91.16
67157;SHT31;54086;50.126;8.710;2022-11-20T11:13:24;4.26;90.98
67157;SHT31;54086;50.126;8.710;2022-11-20T11:15:51;4.43;91.20
67157;SHT31;54086;50.126;8.710;2022-11-20T11:18:34;4.64;91.17
67157;SHT31;54086;50.126;8.710;2022-11-20T11:21:01;4.66;90.65
67157;SHT31;54086;50.126;8.710;2022-11-20T11:26:05;4.73;90.58
67157;SHT31;54086;50.126;8.710;2022-11-20T11:28:30;4.77;90.51
67157;SHT31;54086;50.126;8.710;2022-11-20T11:30:56;4.76;90.50
67157;SHT31;54086;50.126;8.710;2022-11-20T11:33:29;4.84;90.69
67157;SHT31;54086;50.126;8.710;2022-11-20T11:35:57;4.73;90.75
67157;SHT31;54086;50.126;8.710;2022-11-20T11:38:36;4.67;90.77
67157;SHT31;54086;50.126;8.710;2022-11-20T11:41:05;4.79;91.28
67157;SHT31;54086;50.126;8.710;2022-11-20T11:43:34;4.77;91.11
67157;SHT31;54086;50.126;8.710;2022-11-20T11:46:28;4.90;90.38
67157;SHT31;54086;50.126;8.710;2022-11-20T11:49:14;4.87;90.71
67157;SHT31;54086;50.126;8.710;2022-11-20T11:54:54;4.97;90.28
67157;SHT31;54086;50.126;8.710;2022-11-20T11:57:23;4.95;90.35
67157;SHT31;54086;50.126;8.710;2022-11-20T12:00:00;4.88;90.40
67157;SHT31;54086;50.126;8.710;2022-11-20T12:02:48;4.84;90.42
67157;SHT31;54086;50.126;8.710;2022-11-20T12:05:35;4.95;90.52
67157;SHT31;54086;50.126;8.710;2022-11-20T12:08:24;5.11;89.93
67157;SHT31;54086;50.126;8.710;2022-11-20T12:10:57;5.25;89.51
67157;SHT31;54086;50.126;8.710;2022-11-20T12:15:59;5.79;88.35
67157;SHT31;54086;50.126;8.710;2022-11-20T12:18:25;5.86;88.04
67157;SHT31;54086;50.126;8.710;2022-11-20T12:23:28;5.58;88.47
67157;SHT31;54086;50.126;8.710;2022-11-20T12:25:57;5.55;88.31
67157;SHT31;54086;50.126;8.710;2022-11-20T12:28:50;5.39;88.50
67157;SHT31;54086;50.126;8.710;2022-11-20T12:34:10;5.32;89.67
67157;SHT31;54086;50.126;8.710;2022-11-20T12:37:08;5.45;89.53
67157;SHT31;54086;50.126;8.710;2022-11-20T12:39:42;5.38;89.66
67157;SHT31;54086;50.126;8.710;2022-11-20T12:56:12;5.21;91.32
67157;SHT31;54086;50.126;8.710;2022-11-20T13:01:49;5.24;91.92
67157;SHT31;54086;50.126;8.710;2022-11-20T13:07:13;5.17;91.73
67157;SHT31;54086;50.126;8.710;2022-11-20T13:09:48;5.07;91.63
67157;SHT31;54086;50.126;8.710;2022-11-20T13:12:37;5.05;91.81
67157;SHT31;54086;50.126;8.710;2022-11-20T13:15:42;4.98;91.63
67157;SHT31;54086;50.126;8.710;2022-11-20T13:18:11;4.97;91.86
67157;SHT31;54086;50.126;8.710;2022-11-20T13:20:42;5.01;92.08
67157;SHT31;54086;50.126;8.710;2022-11-20T13:23:08;4.95;92.25
67157;SHT31;54086;50.126;8.710;2022-11-20T13:25:35;4.95;92.21
67157;SHT31;54086;50.126;8.710;2022-11-20T13:28:05;4.97;92.36
67157;SHT31;54086;50.126;8.710;2022-11-20T13:30:51;4.95;92.63
67157;SHT31;54086;50.126;8.710;2022-11-20T13:33:30;4.81;92.48
67157;SHT31;54086;50.126;8.710;2022-11-20T13:36:05;4.90;93.00
67157;SHT31;54086;50.126;8.710;2022-11-20T13:38:43;4.94;93.00
67157;SHT31;54086;50.126;8.710;2022-11-20T13:41:09;4.91;92.61
67157;SHT31;54086;50.126;8.710;2022-11-20T13:43:57;4.90;92.74
67157;SHT31;54086;50.126;8.710;2022-11-20T13:46:23;4.88;92.64
67157;SHT31;54086;50.126;8.710;2022-11-20T13:48:51;4.88;92.91
67157;SHT31;54086;50.126;8.710;2022-11-20T13:51:51;4.91;92.69
67157;SHT31;54086;50.126;8.710;2022-11-20T14:02:27;4.80;92.09
67157;SHT31;54086;50.126;8.710;2022-11-20T14:04:57;4.85;92.44
67157;SHT31;54086;50.126;8.710;2022-11-20T14:07:35;4.77;92.67
67157;SHT31;54086;50.126;8.710;2022-11-20T14:10:03;4.74;92.77
67157;SHT31;54086;50.126;8.710;2022-11-20T14:12:32;4.76;92.75
67157;SHT31;54086;50.126;8.710;2022-11-20T14:14:59;4.77;92.63
67157;SHT31;54086;50.126;8.710;2022-11-20T14:17:32;4.73;92.45
67157;SHT31;54086;50.126;8.710;2022-11-20T14:20:06;4.80;92.15
67157;SHT31;54086;50.126;8.710;2022-11-20T14:22:36;4.77;91.86
67157;SHT31;54086;50.126;8.710;2022-11-20T14:27:40;4.84;92.27
67157;SHT31;54086;50.126;8.710;2022-11-20T14:30:16;5.00;91.90
67157;SHT31;54086;50.126;8.710;2022-11-20T14:32:43;4.98;91.82
67157;SHT31;54086;50.126;8.710;2022-11-20T14:35:14;4.94;91.84
67157;SHT31;54086;50.126;8.710;2022-11-20T14:37:44;5.01;92.22
67157;SHT31;54086;50.126;8.710;2022-11-20T14:42:48;4.97;91.68
67157;SHT31;54086;50.126;8.710;2022-11-20T14:45:13;4.92;91.84
67157;SHT31;54086;50.126;8.710;2022-11-20T14:47:40;5.10;92.27
67157;SHT31;54086;50.126;8.710;2022-11-20T14:50:13;5.04;92.15
67157;SHT31;54086;50.126;8.710;2022-11-20T14:52:50;4.98;92.31
67157;SHT31;54086;50.126;8.710;2022-11-20T14:55:31;5.01;92.37
67157;SHT31;54086;50.126;8.710;2022-11-20T14:58:00;4.91;92.04
67157;SHT31;54086;50.126;8.710;2022-11-20T15:00:26;5.01;92.32
67157;SHT31;54086;50.126;8.710;2022-11-20T15:02:52;4.87;92.19
67157;SHT31;54086;50.126;8.710;2022-11-20T15:05:20;4.88;92.58
67157;SHT31;54086;50.126;8.710;2022-11-20T15:08:06;4.95;92.59
67157;SHT31;54086;50.126;8.710;2022-11-20T15:10:32;5.07;92.67
67157;SHT31;54086;50.126;8.710;2022-11-20T15:13:03;5.12;92.39
67157;SHT31;54086;50.126;8.710;2022-11-20T15:15:35;5.07;92.28
67157;SHT31;54086;50.126;8.710;2022-11-20T15:18:01;5.14;92.61
67157;SHT31;54086;50.126;8.710;2022-11-20T15:20:29;5.11;92.49
67157;SHT31;54086;50.126;8.710;2022-11-20T15:22:55;5.22;92.44
67157;SHT31;54086;50.126;8.710;2022-11-20T15:25:21;5.12;92.30
67157;SHT31;54086;50.126;8.710;2022-11-20T15:27:52;5.15;92.75
67157;SHT31;54086;50.126;8.710;2022-11-20T15:30:24;5.10;92.73
67157;SHT31;54086;50.126;8.710;2022-11-20T15:32:50;5.05;92.73
67157;SHT31;54086;50.126;8.710;2022-11-20T15:35:15;4.98;92.93
67157;SHT31;54086;50.126;8.710;2022-11-20T15:37:41;4.97;93.29
67157;SHT31;54086;50.126;8.710;2022-11-20T15:40:08;5.00;93.33
67157;SHT31;54086;50.126;8.710;2022-11-20T15:42:34;5.01;93.57
67157;SHT31;54086;50.126;8.710;2022-11-20T15:45:00;5.10;93.25
67157;SHT31;54086;50.126;8.710;2022-11-20T15:47:31;5.05;93.31
67157;SHT31;54086;50.126;8.710;2022-11-20T15:49:57;5.14;93.29
67157;SHT31;54086;50.126;8.710;2022-11-20T15:52:22;5.20;93.32
67157;SHT31;54086;50.126;8.710;2022-11-20T15:54:48;5.24;93.12
67157;SHT31;54086;50.126;8.710;2022-11-20T15:57:13;5.17;93.08
67157;SHT31;54086;50.126;8.710;2022-11-20T15:59:39;5.18;93.10
67157;SHT31;54086;50.126;8.710;2022-11-20T16:02:11;5.21;93.41
67157;SHT31;54086;50.126;8.710;2022-11-20T16:04:36;5.25;93.19
67157;SHT31;54086;50.126;8.710;2022-11-20T16:07:02;5.18;93.12
67157;SHT31;54086;50.126;8.710;2022-11-20T16:09:27;5.15;93.17
67157;SHT31;54086;50.126;8.710;2022-11-20T16:11:52;5.11;93.24
67157;SHT31;54086;50.126;8.710;2022-11-20T16:14:18;5.17;93.38
67157;SHT31;54086;50.126;8.710;2022-11-20T16:17:02;5.24;93.44
67157;SHT31;54086;50.126;8.710;2022-11-20T16:19:28;5.25;93.48
67157;SHT31;54086;50.126;8.710;2022-11-20T16:21:53;5.14;93.59
67157;SHT31;54086;50.126;8.710;2022-11-20T16:24:19;5.08;93.68
67157;SHT31;54086;50.126;8.710;2022-11-20T16:26:44;5.10;93.77
67157;SHT31;54086;50.126;8.710;2022-11-20T16:29:09;5.17;93.63
67157;SHT31;54086;50.126;8.710;2022-11-20T16:31:35;5.22;93.57
67157;SHT31;54086;50.126;8.710;2022-11-20T16:34:04;5.22;93.84
67157;SHT31;54086;50.126;8.710;2022-11-20T16:36:31;5.21;93.58
67157;SHT31;54086;50.126;8.710;2022-11-20T16:38:58;5.12;93.59
67157;SHT31;54086;50.126;8.710;2022-11-20T16:41:25;5.02;93.79
67157;SHT31;54086;50.126;8.710;2022-11-20T16:43:53;5.04;94.11
67157;SHT31;54086;50.126;8.710;2022-11-20T16:46:21;5.07;94.15
67157;SHT31;54086;50.126;8.710;2022-11-20T16:49:00;5.12;94.08
67157;SHT31;54086;50.126;8.710;2022-11-20T16:51:27;5.17;94.32
67157;SHT31;54086;50.126;8.710;2022-11-20T16:53:53;5.25;94.36
67157;SHT31;54086;50.126;8.710;2022-11-20T16:56:25;5.25;94.31
67157;SHT31;54086;50.126;8.710;2022-11-20T16:58:53;5.27;94.32
67157;SHT31;54086;50.126;8.710;2022-11-20T17:01:20;5.25;94.18
67157;SHT31;54086;50.126;8.710;2022-11-20T17:04:03;5.22;94.35
67157;SHT31;54086;50.126;8.710;2022-11-20T17:06:46;5.21;94.18
67157;SHT31;54086;50.126;8.710;2022-11-20T17:09:12;5.12;94.46
67157;SHT31;54086;50.126;8.710;2022-11-20T17:11:38;5.14;94.69
67157;SHT31;54086;50.126;8.710;2022-11-20T17:14:04;5.17;94.68
67157;SHT31;54086;50.126;8.710;2022-11-20T17:16:32;5.22;94.58
67157;SHT31;54086;50.126;8.710;2022-11-20T17:18:58;5.21;94.37
67157;SHT31;54086;50.126;8.710;2022-11-20T17:21:24;5.25;94.74